createdAt,value
2022-08-07T00:00:03.722Z,13.31
2022-08-07T00:01:12.443Z,13.31
2022-08-07T00:02:35.817Z,13.31
2022-08-07T00:03:04.146Z,13.25
2022-08-07T00:04:04.158Z,13.25
2022-08-07T00:05:04.402Z,13.25
2022-08-07T00:06:04.226Z,13.25
2022-08-07T00:07:04.990Z,13.25
2022-08-07T00:08:04.250Z,13.25
2022-08-07T00:09:16.572Z,13.25
2022-08-07T00:10:19.564Z,13.25
2022-08-07T00:11:04.863Z,13.25
2022-08-07T00:12:04.301Z,13.19
2022-08-07T00:13:09.993Z,13.19
2022-08-07T00:14:04.229Z,13.19
2022-08-07T00:15:04.314Z,13.12
2022-08-07T00:16:04.401Z,13.12
2022-08-07T00:17:04.404Z,13.12
2022-08-07T00:18:04.420Z,13.12
2022-08-07T00:19:05.597Z,13.06
2022-08-07T00:20:04.396Z,13.06
2022-08-07T00:21:08.089Z,13.06
2022-08-07T00:22:03.822Z,13.00
2022-08-07T00:23:03.849Z,13.00
2022-08-07T00:24:04.225Z,13.00
2022-08-07T00:25:04.313Z,13.00
2022-08-07T00:26:13.468Z,13.00
2022-08-07T00:27:06.613Z,12.94
2022-08-07T00:28:03.919Z,12.94
2022-08-07T00:29:04.003Z,12.94
2022-08-07T00:30:04.077Z,12.94
2022-08-07T00:31:04.482Z,12.94
2022-08-07T00:32:04.076Z,12.88
2022-08-07T00:33:04.074Z,12.88
2022-08-07T00:34:04.154Z,12.88
2022-08-07T00:35:04.217Z,12.81
2022-08-07T00:36:04.312Z,12.81
2022-08-07T00:37:04.885Z,12.81
2022-08-07T00:38:04.383Z,12.81
2022-08-07T00:39:04.387Z,12.75
2022-08-07T00:40:04.381Z,12.75
2022-08-07T00:41:04.394Z,12.75
2022-08-07T00:42:05.071Z,12.75
2022-08-07T00:43:04.479Z,12.75
2022-08-07T00:44:03.898Z,12.75
2022-08-07T00:45:06.739Z,12.75
2022-08-07T00:46:04.217Z,12.75
2022-08-07T00:47:04.227Z,12.75
2022-08-07T00:48:08.556Z,12.69
2022-08-07T00:49:04.314Z,12.69
2022-08-07T00:50:17.466Z,12.69
2022-08-07T00:51:04.067Z,12.69
2022-08-07T00:52:04.156Z,12.62
2022-08-07T00:53:04.232Z,12.62
2022-08-07T00:54:04.380Z,12.62
2022-08-07T00:55:04.574Z,12.62
2022-08-07T00:56:04.410Z,12.62
2022-08-07T00:57:04.397Z,12.62
2022-08-07T00:58:04.397Z,12.62
2022-08-07T00:59:04.430Z,12.62
2022-08-07T01:00:04.386Z,12.62
2022-08-07T01:01:03.557Z,12.56
2022-08-07T01:02:03.705Z,12.56
2022-08-07T01:03:03.591Z,12.56
2022-08-07T01:04:03.636Z,12.56
2022-08-07T01:05:03.540Z,12.56
2022-08-07T01:06:03.521Z,12.56
2022-08-07T01:07:03.516Z,12.50
2022-08-07T01:08:03.509Z,12.50
2022-08-07T01:09:03.454Z,12.50
2022-08-07T01:10:05.385Z,12.50
2022-08-07T01:11:22.913Z,12.50
2022-08-07T01:12:23.561Z,12.44
2022-08-07T01:13:04.405Z,12.44
2022-08-07T01:14:04.409Z,12.44
2022-08-07T01:15:04.095Z,12.44
2022-08-07T01:16:05.800Z,12.44
2022-08-07T01:17:04.157Z,12.38
2022-08-07T01:18:03.690Z,12.38
2022-08-07T01:19:03.686Z,12.38
2022-08-07T01:20:03.809Z,12.38
2022-08-07T01:21:03.788Z,12.31
2022-08-07T01:22:03.801Z,12.31
2022-08-07T01:23:12.551Z,12.31
2022-08-07T01:24:03.752Z,12.31
2022-08-07T01:25:05.222Z,12.31
2022-08-07T01:26:03.761Z,12.25
2022-08-07T01:27:03.850Z,12.25
2022-08-07T01:28:03.763Z,12.25
2022-08-07T01:29:03.832Z,12.19
2022-08-07T01:30:03.846Z,12.19
2022-08-07T01:31:03.833Z,12.19
2022-08-07T01:32:05.342Z,12.19
2022-08-07T01:33:03.821Z,12.19
2022-08-07T01:34:03.840Z,12.19
2022-08-07T01:35:03.924Z,12.12
2022-08-07T01:36:06.108Z,12.12
2022-08-07T01:37:03.910Z,12.12
2022-08-07T01:38:04.010Z,12.12
2022-08-07T01:39:04.081Z,12.12
2022-08-07T01:40:03.955Z,12.12
2022-08-07T01:41:03.903Z,12.06
2022-08-07T01:42:07.837Z,12.06
2022-08-07T01:43:03.320Z,12.06
2022-08-07T01:44:03.905Z,12.00
2022-08-07T01:45:03.908Z,12.00
2022-08-07T01:46:03.974Z,12.00
2022-08-07T01:47:14.186Z,12.00
2022-08-07T01:48:19.848Z,11.94
2022-08-07T01:49:04.380Z,11.94
2022-08-07T01:50:04.224Z,11.94
2022-08-07T01:51:08.387Z,11.94
2022-08-07T01:52:04.984Z,11.88
2022-08-07T01:53:08.706Z,11.88
2022-08-07T01:54:09.720Z,11.88
2022-08-07T01:55:04.405Z,11.88
2022-08-07T01:56:03.596Z,11.88
2022-08-07T01:57:03.519Z,11.88
2022-08-07T01:58:06.295Z,11.88
2022-08-07T01:59:03.422Z,11.88
2022-08-07T02:00:03.524Z,11.81
2022-08-07T02:01:09.258Z,11.81
2022-08-07T02:02:04.560Z,11.81
2022-08-07T02:03:12.838Z,11.81
2022-08-07T02:04:03.841Z,11.81
2022-08-07T02:05:04.633Z,11.81
2022-08-07T02:06:08.809Z,11.81
2022-08-07T02:07:04.065Z,11.81
2022-08-07T02:08:03.924Z,11.75
2022-08-07T02:09:04.425Z,11.75
2022-08-07T02:10:04.063Z,11.75
2022-08-07T02:11:04.187Z,11.69
2022-08-07T02:12:05.198Z,11.69
2022-08-07T02:13:04.150Z,11.69
2022-08-07T02:14:04.163Z,11.69
2022-08-07T02:15:05.967Z,11.69
2022-08-07T02:16:04.166Z,11.62
2022-08-07T02:17:04.334Z,11.62
2022-08-07T02:18:04.243Z,11.62
2022-08-07T02:19:05.295Z,11.62
2022-08-07T02:20:07.919Z,11.56
2022-08-07T02:21:06.105Z,11.56
2022-08-07T02:22:04.161Z,11.56
2022-08-07T02:23:04.308Z,11.56
2022-08-07T02:24:04.235Z,11.56
2022-08-07T02:25:07.079Z,11.56
2022-08-07T02:26:11.106Z,11.50
2022-08-07T02:27:04.304Z,11.50
2022-08-07T02:28:04.395Z,11.50
2022-08-07T02:29:03.596Z,11.44
2022-08-07T02:30:06.431Z,11.44
2022-08-07T02:31:06.112Z,11.44
2022-08-07T02:32:03.599Z,11.44
2022-08-07T02:33:07.317Z,11.44
2022-08-07T02:34:11.356Z,11.44
2022-08-07T02:35:03.512Z,11.44
2022-08-07T02:36:27.346Z,11.44
2022-08-07T02:37:03.527Z,11.38
2022-08-07T02:38:03.535Z,11.38
2022-08-07T02:39:09.375Z,11.38
2022-08-07T02:40:11.604Z,11.38
2022-08-07T02:41:03.919Z,11.38
2022-08-07T02:42:03.758Z,11.31
2022-08-07T02:43:07.659Z,11.31
2022-08-07T02:44:03.678Z,11.31
2022-08-07T02:45:07.406Z,11.31
2022-08-07T02:46:04.095Z,11.31
2022-08-07T02:47:04.065Z,11.31
2022-08-07T02:48:04.060Z,11.25
2022-08-07T02:49:03.991Z,11.25
2022-08-07T02:50:04.004Z,11.25
2022-08-07T02:51:04.006Z,11.25
2022-08-07T02:52:04.091Z,11.19
2022-08-07T02:53:06.087Z,11.19
2022-08-07T02:54:05.036Z,11.19
2022-08-07T02:55:04.190Z,11.19
2022-08-07T02:56:05.845Z,11.12
2022-08-07T02:57:06.513Z,11.12
2022-08-07T02:58:04.249Z,11.12
2022-08-07T02:59:04.344Z,11.12
2022-08-07T03:00:04.817Z,11.12
2022-08-07T03:01:04.439Z,11.06
2022-08-07T03:02:04.405Z,11.06
2022-08-07T03:03:05.937Z,11.06
2022-08-07T03:04:07.030Z,11.06
2022-08-07T03:05:04.834Z,11.06
2022-08-07T03:06:04.318Z,11.00
2022-08-07T03:07:07.193Z,11.00
2022-08-07T03:08:05.474Z,11.06
2022-08-07T03:09:04.316Z,11.00
2022-08-07T03:10:04.230Z,11.00
2022-08-07T03:11:04.322Z,11.00
2022-08-07T03:12:04.332Z,11.00
2022-08-07T03:13:04.473Z,11.00
2022-08-07T03:14:04.309Z,11.00
2022-08-07T03:15:07.631Z,11.00
2022-08-07T03:16:04.402Z,10.94
2022-08-07T03:17:04.499Z,10.94
2022-08-07T03:18:03.502Z,10.94
2022-08-07T03:19:04.906Z,10.94
2022-08-07T03:20:04.495Z,10.94
2022-08-07T03:21:04.481Z,10.88
2022-08-07T03:22:04.485Z,10.88
2022-08-07T03:23:04.491Z,10.88
2022-08-07T03:24:17.708Z,10.81
2022-08-07T03:25:03.585Z,10.81
2022-08-07T03:26:03.677Z,10.81
2022-08-07T03:27:04.326Z,10.81
2022-08-07T03:28:09.903Z,10.81
2022-08-07T03:29:04.070Z,10.75
2022-08-07T03:30:04.163Z,10.75
2022-08-07T03:31:04.234Z,10.75
2022-08-07T03:32:04.237Z,10.75
2022-08-07T03:33:04.216Z,10.75
2022-08-07T03:34:04.305Z,10.75
2022-08-07T03:35:17.292Z,10.75
2022-08-07T03:36:04.407Z,10.75
2022-08-07T03:37:12.073Z,10.69
2022-08-07T03:38:04.720Z,10.69
2022-08-07T03:39:05.347Z,10.69
2022-08-07T03:40:13.532Z,10.69
2022-08-07T03:41:03.895Z,10.69
2022-08-07T03:42:03.845Z,10.69
2022-08-07T03:43:03.761Z,10.69
2022-08-07T03:44:03.917Z,10.69
2022-08-07T03:45:03.920Z,10.69
2022-08-07T03:46:03.900Z,10.62
2022-08-07T03:47:11.592Z,10.62
2022-08-07T03:48:04.000Z,10.62
2022-08-07T03:49:03.984Z,10.62
2022-08-07T03:50:04.019Z,10.62
2022-08-07T03:51:03.986Z,10.62
2022-08-07T03:52:03.989Z,10.62
2022-08-07T03:53:04.192Z,10.62
2022-08-07T03:54:32.842Z,10.62
2022-08-07T03:55:06.360Z,10.62
2022-08-07T03:56:05.079Z,10.62
2022-08-07T03:57:07.276Z,10.62
2022-08-07T03:58:35.776Z,10.56
2022-08-07T03:59:06.928Z,10.56
2022-08-07T04:00:04.462Z,10.56
2022-08-07T04:01:04.329Z,10.56
2022-08-07T04:02:04.400Z,10.56
2022-08-07T04:03:05.028Z,10.62
2022-08-07T04:04:04.813Z,10.56
2022-08-07T04:05:03.504Z,10.56
2022-08-07T04:06:03.621Z,10.56
2022-08-07T04:07:03.518Z,10.56
2022-08-07T04:08:03.610Z,10.56
2022-08-07T04:09:03.677Z,10.56
2022-08-07T04:10:03.746Z,10.56
2022-08-07T04:12:20.979Z,10.56
2022-08-07T04:12:21.014Z,10.56
2022-08-07T04:13:04.332Z,10.56
2022-08-07T04:14:09.738Z,10.56
2022-08-07T04:15:04.922Z,10.62
2022-08-07T04:16:04.234Z,10.56
2022-08-07T04:17:04.178Z,10.56
2022-08-07T04:18:31.494Z,10.56
2022-08-07T04:19:03.652Z,10.62
2022-08-07T04:20:04.133Z,10.62
2022-08-07T04:21:04.225Z,10.62
2022-08-07T04:22:05.500Z,10.62
2022-08-07T04:23:06.346Z,10.62
2022-08-07T04:24:06.083Z,10.62
2022-08-07T04:25:08.746Z,10.62
2022-08-07T04:26:04.315Z,10.62
2022-08-07T04:27:04.353Z,10.62
2022-08-07T04:28:04.312Z,10.62
2022-08-07T04:29:04.408Z,10.62
2022-08-07T04:30:04.486Z,10.69
2022-08-07T04:31:03.526Z,10.69
2022-08-07T04:32:10.193Z,10.75
2022-08-07T04:33:07.193Z,10.88
2022-08-07T04:34:03.661Z,11.00
2022-08-07T04:35:05.472Z,11.19
2022-08-07T04:36:06.364Z,11.38
2022-08-07T04:37:03.839Z,11.62
2022-08-07T04:38:05.491Z,11.88
2022-08-07T04:39:03.946Z,12.06
2022-08-07T04:40:04.012Z,12.31
2022-08-07T04:41:03.910Z,12.50
2022-08-07T04:42:04.041Z,12.75
2022-08-07T04:43:03.933Z,13.00
2022-08-07T04:44:10.999Z,13.25
2022-08-07T04:45:07.952Z,13.50
2022-08-07T04:46:04.249Z,13.75
2022-08-07T04:47:08.040Z,14.00
2022-08-07T04:48:03.871Z,14.25
2022-08-07T04:49:03.499Z,14.50
2022-08-07T04:50:04.634Z,14.75
2022-08-07T04:51:04.012Z,15.00
2022-08-07T04:52:03.994Z,15.25
2022-08-07T04:53:03.997Z,15.44
2022-08-07T04:54:05.948Z,15.69
2022-08-07T04:55:15.075Z,15.94
2022-08-07T04:58:08.743Z,16.19
2022-08-07T04:58:09.231Z,16.44
2022-08-07T04:58:09.274Z,16.69
2022-08-07T04:59:08.336Z,16.94
2022-08-07T05:00:08.330Z,17.19
2022-08-07T05:01:03.850Z,17.44
2022-08-07T05:02:03.825Z,17.69
2022-08-07T05:03:16.658Z,18.00
2022-08-07T05:04:08.110Z,18.25
2022-08-07T05:05:11.387Z,18.56
2022-08-07T05:06:16.553Z,18.88
2022-08-07T05:07:09.742Z,19.19
2022-08-07T05:08:04.076Z,19.56
2022-08-07T05:09:04.148Z,19.94
2022-08-07T05:10:04.612Z,20.31
2022-08-07T05:11:04.158Z,20.75
2022-08-07T05:12:04.702Z,21.12
2022-08-07T05:13:10.226Z,21.56
2022-08-07T05:14:45.159Z,22.06
2022-08-07T05:15:04.655Z,22.56
2022-08-07T05:16:04.663Z,23.00
2022-08-07T05:17:05.734Z,23.50
2022-08-07T05:18:06.313Z,23.88
2022-08-07T05:19:03.933Z,24.31
2022-08-07T05:20:07.846Z,24.81
2022-08-07T05:21:04.097Z,25.31
2022-08-07T05:22:04.538Z,25.81
2022-08-07T05:23:04.118Z,26.25
2022-08-07T05:24:04.164Z,26.81
2022-08-07T05:25:08.570Z,27.25
2022-08-07T05:26:11.362Z,27.69
2022-08-07T05:27:04.079Z,28.12
2022-08-07T05:28:16.546Z,28.56
2022-08-07T05:29:04.601Z,28.94
2022-08-07T05:30:04.238Z,29.31
2022-08-07T05:31:04.337Z,29.62
2022-08-07T05:32:04.382Z,29.88
2022-08-07T05:33:03.516Z,30.12
2022-08-07T05:34:05.942Z,30.38
2022-08-07T05:35:03.611Z,30.56
2022-08-07T05:36:03.631Z,30.75
2022-08-07T05:37:05.686Z,30.94
2022-08-07T05:38:08.542Z,31.12
2022-08-07T05:39:08.843Z,31.31
2022-08-07T05:40:07.232Z,31.50
2022-08-07T05:41:05.565Z,31.69
2022-08-07T05:42:07.420Z,31.88
2022-08-07T05:43:03.925Z,32.00
2022-08-07T05:44:08.859Z,32.06
2022-08-07T05:45:04.262Z,32.19
2022-08-07T05:46:04.169Z,32.38
2022-08-07T05:47:17.957Z,32.44
2022-08-07T05:48:04.453Z,32.56
2022-08-07T05:49:08.878Z,32.62
2022-08-07T05:50:05.050Z,32.81
2022-08-07T05:51:04.249Z,32.88
2022-08-07T05:52:04.299Z,32.94
2022-08-07T05:53:04.322Z,33.00
2022-08-07T05:54:08.431Z,33.19
2022-08-07T05:55:07.343Z,33.19
2022-08-07T05:56:05.759Z,33.31
2022-08-07T05:57:04.395Z,33.38
2022-08-07T05:58:04.325Z,33.50
2022-08-07T05:59:04.331Z,33.56
2022-08-07T06:00:04.493Z,33.69
2022-08-07T06:01:04.810Z,33.69
2022-08-07T06:02:04.483Z,33.69
2022-08-07T06:03:04.490Z,33.69
2022-08-07T06:04:04.497Z,33.75
2022-08-07T06:05:03.909Z,33.88
2022-08-07T06:06:03.626Z,33.94
2022-08-07T06:07:04.386Z,34.00
2022-08-07T06:08:05.311Z,34.06
2022-08-07T06:09:04.540Z,34.06
2022-08-07T06:10:04.941Z,34.12
2022-08-07T06:11:04.018Z,34.06
2022-08-07T06:12:03.823Z,34.12
2022-08-07T06:13:04.029Z,34.12
2022-08-07T06:14:11.389Z,34.06
2022-08-07T06:15:05.471Z,33.94
2022-08-07T06:16:03.939Z,33.94
2022-08-07T06:17:07.173Z,33.88
2022-08-07T06:18:04.009Z,33.81
2022-08-07T06:19:04.016Z,33.62
2022-08-07T06:20:04.671Z,33.56
2022-08-07T06:22:12.120Z,33.44
2022-08-07T06:22:12.418Z,33.50
2022-08-07T06:23:25.581Z,33.19
2022-08-07T06:24:37.388Z,33.06
2022-08-07T06:25:04.327Z,32.94
2022-08-07T06:26:04.188Z,32.69
2022-08-07T06:27:04.176Z,32.69
2022-08-07T06:28:04.526Z,32.62
2022-08-07T06:29:04.250Z,32.38
2022-08-07T06:30:04.394Z,32.19
2022-08-07T06:31:03.742Z,31.94
2022-08-07T06:32:03.528Z,31.75
2022-08-07T06:33:03.668Z,31.69
2022-08-07T06:34:03.521Z,31.50
2022-08-07T06:35:03.627Z,31.38
2022-08-07T06:36:06.995Z,31.31
2022-08-07T06:37:03.690Z,31.25
2022-08-07T06:38:03.752Z,31.25
2022-08-07T06:40:12.812Z,31.31
2022-08-07T06:40:14.079Z,31.44
2022-08-07T06:41:03.808Z,31.50
2022-08-07T06:42:03.945Z,31.50
2022-08-07T06:43:03.689Z,31.38
2022-08-07T06:44:06.583Z,31.44
2022-08-07T06:45:03.684Z,31.50
2022-08-07T06:46:03.757Z,31.50
2022-08-07T06:47:09.986Z,31.44
2022-08-07T06:48:03.913Z,31.56
2022-08-07T06:49:04.524Z,31.62
2022-08-07T06:50:04.095Z,31.62
2022-08-07T06:51:08.102Z,31.75
2022-08-07T06:52:07.337Z,31.88
2022-08-07T06:53:04.535Z,31.88
2022-08-07T06:54:12.298Z,31.81
2022-08-07T06:55:31.033Z,31.75
2022-08-07T06:56:04.158Z,31.81
2022-08-07T06:57:04.388Z,31.88
2022-08-07T06:58:04.567Z,31.88
2022-08-07T07:00:10.746Z,32.00
2022-08-07T07:00:11.111Z,32.00
2022-08-07T07:01:03.533Z,31.94
2022-08-07T07:02:03.738Z,31.94
2022-08-07T07:03:08.542Z,31.94
2022-08-07T07:04:27.571Z,32.00
2022-08-07T07:05:03.796Z,32.06
2022-08-07T07:06:06.158Z,32.19
2022-08-07T07:07:10.600Z,32.12
2022-08-07T07:08:07.077Z,32.19
2022-08-07T07:09:03.613Z,32.25
2022-08-07T07:10:03.593Z,32.12
2022-08-07T07:11:13.369Z,32.25
2022-08-07T07:12:07.365Z,32.31
2022-08-07T07:13:03.714Z,32.31
2022-08-07T07:14:03.815Z,32.38
2022-08-07T07:15:03.865Z,32.38
2022-08-07T07:16:03.837Z,32.44
2022-08-07T07:17:04.045Z,32.50
2022-08-07T07:18:05.606Z,32.56
2022-08-07T07:19:04.013Z,32.62
2022-08-07T07:20:03.828Z,32.69
2022-08-07T07:21:04.146Z,32.69
2022-08-07T07:22:12.452Z,32.75
2022-08-07T07:24:06.711Z,32.62
2022-08-07T07:24:06.750Z,32.69
2022-08-07T07:25:14.415Z,32.62
2022-08-07T07:26:33.672Z,32.62
2022-08-07T07:27:04.347Z,32.69
2022-08-07T07:28:07.686Z,32.69
2022-08-07T07:29:38.837Z,32.62
2022-08-07T07:30:09.478Z,32.56
2022-08-07T07:31:04.240Z,32.62
2022-08-07T07:32:04.012Z,32.44
2022-08-07T07:33:03.935Z,32.50
2022-08-07T07:34:03.991Z,32.50
2022-08-07T07:35:04.245Z,32.50
2022-08-07T07:36:12.993Z,32.50
2022-08-07T07:37:05.339Z,32.31
2022-08-07T07:38:05.841Z,32.25
2022-08-07T07:39:08.592Z,32.12
2022-08-07T07:40:03.587Z,32.06
2022-08-07T07:41:03.784Z,32.12
2022-08-07T07:42:09.151Z,32.12
2022-08-07T07:43:11.805Z,32.00
2022-08-07T07:44:15.012Z,31.69
2022-08-07T07:45:03.954Z,31.69
2022-08-07T07:46:36.177Z,31.62
2022-08-07T07:47:12.006Z,31.62
2022-08-07T07:48:03.934Z,31.62
2022-08-07T07:49:09.045Z,31.44
2022-08-07T07:50:32.425Z,31.38
2022-08-07T07:51:07.645Z,31.25
2022-08-07T07:52:03.922Z,31.25
2022-08-07T07:53:03.922Z,31.19
2022-08-07T07:54:03.985Z,31.19
2022-08-07T07:55:04.062Z,31.25
2022-08-07T07:56:04.100Z,31.12
2022-08-07T07:57:03.999Z,31.06
2022-08-07T07:58:04.100Z,31.00
2022-08-07T07:59:04.147Z,30.94
2022-08-07T08:00:04.167Z,30.94
2022-08-07T08:02:01.053Z,30.75
2022-08-07T08:02:05.041Z,30.56
2022-08-07T08:03:05.157Z,30.44
2022-08-07T08:04:06.796Z,30.25
2022-08-07T08:05:04.408Z,30.38
2022-08-07T08:06:05.120Z,30.38
2022-08-07T08:07:07.757Z,30.06
2022-08-07T08:08:04.537Z,29.75
2022-08-07T08:09:04.561Z,29.69
2022-08-07T08:10:05.185Z,29.62
2022-08-07T08:11:03.733Z,29.50
2022-08-07T08:12:05.067Z,29.38
2022-08-07T08:13:04.484Z,29.31
2022-08-07T08:14:07.235Z,29.31
2022-08-07T08:15:06.944Z,29.38
2022-08-07T08:16:03.943Z,29.44
2022-08-07T08:17:14.111Z,29.38
2022-08-07T08:18:17.723Z,29.38
2022-08-07T08:19:09.593Z,29.00
2022-08-07T08:20:16.843Z,28.94
2022-08-07T08:21:03.751Z,28.94
2022-08-07T08:22:03.938Z,28.94
2022-08-07T08:23:03.828Z,28.69
2022-08-07T08:24:04.007Z,28.56
2022-08-07T08:25:04.885Z,28.31
2022-08-07T08:26:06.803Z,28.44
2022-08-07T08:27:05.984Z,28.44
2022-08-07T08:28:04.260Z,28.38
2022-08-07T08:29:04.009Z,28.25
2022-08-07T08:30:04.029Z,28.06
2022-08-07T08:31:03.831Z,27.94
2022-08-07T08:32:17.624Z,27.81
2022-08-07T08:33:03.857Z,27.75
2022-08-07T08:34:03.822Z,27.69
2022-08-07T08:35:03.914Z,27.62
2022-08-07T08:36:03.964Z,27.56
2022-08-07T08:37:03.866Z,27.56
2022-08-07T08:38:04.789Z,27.38
2022-08-07T08:39:04.106Z,27.38
2022-08-07T08:40:04.145Z,27.12
2022-08-07T08:41:03.995Z,26.94
2022-08-07T08:42:04.105Z,26.69
2022-08-07T08:43:04.161Z,26.62
2022-08-07T08:44:04.303Z,26.56
2022-08-07T08:45:04.559Z,26.62
2022-08-07T08:46:04.393Z,26.75
2022-08-07T08:47:04.391Z,26.44
2022-08-07T08:48:04.526Z,26.50
2022-08-07T08:49:05.065Z,26.25
2022-08-07T08:50:05.244Z,26.19
2022-08-07T08:51:14.179Z,26.19
2022-08-07T08:52:13.477Z,26.25
2022-08-07T08:53:03.665Z,26.25
2022-08-07T08:54:03.703Z,26.25
2022-08-07T08:55:04.698Z,26.19
2022-08-07T08:56:03.633Z,26.12
2022-08-07T08:57:03.769Z,26.06
2022-08-07T08:58:03.774Z,26.06
2022-08-07T08:59:06.574Z,26.00
2022-08-07T09:00:03.765Z,25.94
2022-08-07T09:01:14.903Z,25.88
2022-08-07T09:02:03.809Z,25.75
2022-08-07T09:03:03.893Z,25.75
2022-08-07T09:04:03.688Z,25.94
2022-08-07T09:05:03.765Z,25.88
2022-08-07T09:06:03.780Z,25.88
2022-08-07T09:07:04.085Z,25.94
2022-08-07T09:08:03.856Z,25.94
2022-08-07T09:09:09.396Z,25.94
2022-08-07T09:10:03.924Z,25.94
2022-08-07T09:11:03.831Z,25.94
2022-08-07T09:12:20.365Z,25.94
2022-08-07T09:13:03.995Z,26.00
2022-08-07T09:14:03.917Z,26.00
2022-08-07T09:16:21.101Z,25.81
2022-08-07T09:16:21.436Z,25.88
2022-08-07T09:17:04.074Z,25.81
2022-08-07T09:18:07.310Z,25.62
2022-08-07T09:19:07.096Z,25.56
2022-08-07T09:20:09.401Z,25.44
2022-08-07T09:21:03.813Z,25.44
2022-08-07T09:22:10.214Z,25.38
2022-08-07T09:24:30.291Z,25.31
2022-08-07T09:24:34.439Z,25.25
2022-08-07T09:25:06.170Z,25.31
2022-08-07T09:26:03.838Z,25.25
2022-08-07T09:27:04.733Z,25.19
2022-08-07T09:28:03.990Z,25.00
2022-08-07T09:29:24.419Z,25.00
2022-08-07T09:30:08.153Z,25.00
2022-08-07T09:31:04.096Z,25.06
2022-08-07T09:32:04.157Z,25.12
2022-08-07T09:33:05.177Z,25.12
2022-08-07T09:34:04.328Z,25.06
2022-08-07T09:35:04.514Z,25.00
2022-08-07T09:36:06.297Z,25.00
2022-08-07T09:37:04.481Z,25.00
2022-08-07T09:38:04.467Z,25.00
2022-08-07T09:39:06.390Z,25.00
2022-08-07T09:40:03.885Z,25.12
2022-08-07T09:41:03.895Z,25.12
2022-08-07T09:42:05.727Z,25.12
2022-08-07T09:43:04.115Z,25.12
2022-08-07T09:44:06.356Z,25.06
2022-08-07T09:46:28.902Z,25.00
2022-08-07T09:46:28.952Z,24.88
2022-08-07T09:47:26.858Z,24.75
2022-08-07T09:48:07.487Z,24.62
2022-08-07T09:49:59.392Z,24.50
2022-08-07T09:50:18.798Z,24.56
2022-08-07T09:51:03.818Z,24.62
2022-08-07T09:52:09.601Z,24.69
2022-08-07T09:53:03.805Z,24.81
2022-08-07T09:54:03.785Z,24.88
2022-08-07T09:55:03.843Z,24.81
2022-08-07T09:56:05.074Z,24.81
2022-08-07T09:57:03.854Z,24.75
2022-08-07T09:58:03.828Z,24.81
2022-08-07T09:59:07.675Z,24.69
2022-08-07T10:00:03.843Z,24.75
2022-08-07T10:01:03.775Z,24.75
2022-08-07T10:02:03.789Z,24.75
2022-08-07T10:03:03.803Z,24.81
2022-08-07T10:04:12.149Z,24.75
2022-08-07T10:05:12.223Z,24.69
2022-08-07T10:06:07.694Z,24.69
2022-08-07T10:07:03.793Z,24.69
2022-08-07T10:08:03.855Z,24.62
2022-08-07T10:09:03.839Z,24.69
2022-08-07T10:10:04.012Z,24.69
2022-08-07T10:11:17.415Z,24.69
2022-08-07T10:12:11.914Z,24.62
2022-08-07T10:13:04.091Z,24.56
2022-08-07T10:14:04.078Z,24.56
2022-08-07T10:15:04.082Z,24.62
2022-08-07T10:16:04.070Z,24.69
2022-08-07T10:17:04.106Z,24.75
2022-08-07T10:18:04.114Z,24.81
2022-08-07T10:19:04.163Z,24.88
2022-08-07T10:20:04.198Z,24.88
2022-08-07T10:21:04.019Z,24.88
2022-08-07T10:22:15.244Z,24.81
2022-08-07T10:23:04.007Z,24.81
2022-08-07T10:24:05.763Z,24.81
2022-08-07T10:25:03.991Z,24.75
2022-08-07T10:26:04.095Z,24.75
2022-08-07T10:27:04.255Z,24.81
2022-08-07T10:28:04.241Z,24.81
2022-08-07T10:29:05.114Z,24.94
2022-08-07T10:30:04.412Z,24.94
2022-08-07T10:31:05.979Z,24.94
2022-08-07T10:32:04.164Z,24.94
2022-08-07T10:33:04.236Z,25.00
2022-08-07T10:34:07.137Z,25.00
2022-08-07T10:35:09.026Z,25.06
2022-08-07T10:36:10.852Z,25.12
2022-08-07T10:37:04.757Z,25.06
2022-08-07T10:38:21.433Z,25.12
2022-08-07T10:39:04.484Z,25.19
2022-08-07T10:40:06.291Z,25.19
2022-08-07T10:41:04.172Z,25.25
2022-08-07T10:42:09.608Z,25.31
2022-08-07T10:43:04.179Z,25.38
2022-08-07T10:44:07.421Z,25.38
2022-08-07T10:45:04.226Z,25.38
2022-08-07T10:46:04.303Z,25.44
2022-08-07T10:47:04.328Z,25.44
2022-08-07T10:48:04.697Z,25.44
2022-08-07T10:49:04.403Z,25.50
2022-08-07T10:50:04.425Z,25.44
2022-08-07T10:51:04.318Z,25.31
2022-08-07T10:52:13.095Z,25.25
2022-08-07T10:53:05.343Z,25.25
2022-08-07T10:54:04.315Z,25.19
2022-08-07T10:55:07.989Z,25.25
2022-08-07T10:56:04.941Z,25.19
2022-08-07T10:57:03.556Z,25.25
2022-08-07T10:58:04.565Z,25.19
2022-08-07T10:59:04.473Z,25.19
2022-08-07T11:00:03.529Z,25.25
2022-08-07T11:01:05.333Z,25.31
2022-08-07T11:02:05.569Z,25.38
2022-08-07T11:03:03.901Z,25.44
2022-08-07T11:04:16.875Z,25.50
2022-08-07T11:05:08.684Z,25.56
2022-08-07T11:06:04.747Z,25.56
2022-08-07T11:07:03.874Z,25.56
2022-08-07T11:08:04.147Z,25.44
2022-08-07T11:09:03.956Z,25.31
2022-08-07T11:10:08.083Z,25.19
2022-08-07T11:11:04.112Z,25.12
2022-08-07T11:12:04.082Z,25.12
2022-08-07T11:13:04.152Z,25.12
2022-08-07T11:14:43.202Z,25.12
2022-08-07T11:15:03.987Z,25.12
2022-08-07T11:16:04.078Z,25.12
2022-08-07T11:17:07.076Z,25.19
2022-08-07T11:18:04.430Z,25.25
2022-08-07T11:19:04.406Z,25.31
2022-08-07T11:20:04.303Z,25.31
2022-08-07T11:21:04.391Z,25.38
2022-08-07T11:22:04.303Z,25.38
2022-08-07T11:23:04.504Z,25.38
2022-08-07T11:24:04.468Z,25.38
2022-08-07T11:25:06.401Z,25.38
2022-08-07T11:26:06.137Z,25.38
2022-08-07T11:27:03.592Z,25.38
2022-08-07T11:28:04.249Z,25.38
2022-08-07T11:29:05.441Z,25.38
2022-08-07T11:30:10.359Z,25.25
2022-08-07T11:31:04.089Z,25.19
2022-08-07T11:32:04.087Z,25.19
2022-08-07T11:33:07.854Z,25.19
2022-08-07T11:34:04.176Z,25.12
2022-08-07T11:35:04.314Z,25.12
2022-08-07T11:36:08.138Z,25.06
2022-08-07T11:37:04.397Z,25.00
2022-08-07T11:38:09.895Z,25.12
2022-08-07T11:39:04.738Z,25.19
2022-08-07T11:40:03.959Z,25.25
2022-08-07T11:41:03.846Z,25.31
2022-08-07T11:42:03.835Z,25.38
2022-08-07T11:43:03.745Z,25.38
2022-08-07T11:44:11.546Z,25.38
2022-08-07T11:45:04.051Z,25.44
2022-08-07T11:46:04.003Z,25.44
2022-08-07T11:47:04.245Z,25.44
2022-08-07T11:48:08.313Z,25.44
2022-08-07T11:49:29.021Z,25.38
2022-08-07T11:50:30.018Z,25.38
2022-08-07T11:51:04.397Z,25.38
2022-08-07T11:52:04.382Z,25.31
2022-08-07T11:53:05.080Z,25.31
2022-08-07T11:54:06.119Z,25.31
2022-08-07T11:55:03.614Z,25.38
2022-08-07T11:56:08.927Z,25.38
2022-08-07T11:57:03.779Z,25.44
2022-08-07T11:58:03.778Z,25.50
2022-08-07T11:59:03.721Z,25.50
2022-08-07T12:00:08.542Z,25.50
2022-08-07T12:01:04.304Z,25.50
2022-08-07T12:02:03.743Z,25.50
2022-08-07T12:03:03.683Z,25.50
2022-08-07T12:04:03.678Z,25.50
2022-08-07T12:05:03.806Z,25.44
2022-08-07T12:06:36.860Z,25.50
2022-08-07T12:07:08.946Z,25.50
2022-08-07T12:08:04.307Z,25.50
2022-08-07T12:09:03.644Z,25.56
2022-08-07T12:10:05.729Z,25.56
2022-08-07T12:11:08.549Z,25.50
2022-08-07T12:12:09.914Z,25.50
2022-08-07T12:13:03.622Z,25.44
2022-08-07T12:14:03.700Z,25.25
2022-08-07T12:15:03.712Z,25.25
2022-08-07T12:16:05.562Z,25.19
2022-08-07T12:17:04.220Z,25.19
2022-08-07T12:18:08.098Z,25.19
2022-08-07T12:19:03.667Z,25.25
2022-08-07T12:20:08.784Z,25.31
2022-08-07T12:21:03.755Z,25.38
2022-08-07T12:22:36.835Z,25.38
2022-08-07T12:23:02.937Z,25.44
2022-08-07T12:24:06.516Z,25.56
2022-08-07T12:25:07.447Z,25.56
2022-08-07T12:26:23.671Z,25.50
2022-08-07T12:27:04.320Z,25.50
2022-08-07T12:28:09.197Z,25.50
2022-08-07T12:29:04.414Z,25.50
2022-08-07T12:30:04.394Z,25.56
2022-08-07T12:31:04.472Z,25.50
2022-08-07T12:32:04.742Z,25.50
2022-08-07T12:33:03.514Z,25.56
2022-08-07T12:34:04.556Z,25.62
2022-08-07T12:35:05.548Z,25.62
2022-08-07T12:36:03.726Z,25.69
2022-08-07T12:37:03.972Z,25.75
2022-08-07T12:38:10.430Z,25.81
2022-08-07T12:39:09.591Z,25.81
2022-08-07T12:40:04.551Z,25.88
2022-08-07T12:41:03.526Z,25.81
2022-08-07T12:42:03.709Z,25.81
2022-08-07T12:43:03.691Z,25.81
2022-08-07T12:44:05.419Z,25.81
2022-08-07T12:45:04.389Z,25.81
2022-08-07T12:46:03.766Z,25.75
2022-08-07T12:47:06.244Z,25.75
2022-08-07T12:48:03.835Z,25.75
2022-08-07T12:49:09.729Z,25.75
2022-08-07T12:50:04.414Z,25.81
2022-08-07T12:51:12.779Z,25.81
2022-08-07T12:52:12.617Z,25.75